sensor_id;sensor_type;location;lat;lon;timestamp;pressure;altitude;pressure_sealevel;temperature;humidity
13690;BME280;6917;52.194;9.894;2022-08-02T00:02:22;100761.00;;;12.90;100.00
13690;BME280;6917;52.194;9.894;2022-08-02T00:04:48;100762.94;;;12.98;100.00
13690;BME280;6917;52.194;9.894;2022-08-02T00:07:14;100757.00;;;13.04;100.00
13690;BME280;6917;52.194;9.894;2022-08-02T00:09:40;100754.25;;;13.13;100.00
13690;BME280;6917;52.194;9.894;2022-08-02T00:12:05;100744.31;;;13.26;100.00
13690;BME280;6917;52.194;9.894;2022-08-02T00:14:31;100741.09;;;13.32;100.00
13690;BME280;6917;52.194;9.894;2022-08-02T00:16:57;100742.69;;;13.42;100.00
13690;BME280;6917;52.194;9.894;2022-08-02T00:19:22;100738.81;;;13.52;100.00
13690;BME280;6917;52.194;9.894;2022-08-02T00:21:48;100740.44;;;13.53;100.00
13690;BME280;6917;52.194;9.894;2022-08-02T00:24:13;100745.41;;;13.59;100.00
13690;BME280;6917;52.194;9.894;2022-08-02T00:26:39;100740.91;;;13.63;100.00
13690;BME280;6917;52.194;9.894;2022-08-02T00:29:04;100741.53;;;13.69;100.00
13690;BME280;6917;52.194;9.894;2022-08-02T00:31:29;100751.41;;;13.70;100.00
13690;BME280;6917;52.194;9.894;2022-08-02T00:33:55;100746.88;;;13.57;100.00
13690;BME280;6917;52.194;9.894;2022-08-02T00:36:20;100743.00;;;13.40;100.00
13690;BME280;6917;52.194;9.894;2022-08-02T00:38:46;100743.00;;;13.23;100.00
13690;BME280;6917;52.194;9.894;2022-08-02T00:41:16;100755.38;;;13.12;100.00
13690;BME280;6917;52.194;9.894;2022-08-02T00:43:43;100756.19;;;13.04;100.00
13690;BME280;6917;52.194;9.894;2022-08-02T00:46:09;100754.06;;;12.92;100.00
13690;BME280;6917;52.194;9.894;2022-08-02T00:48:34;100748.72;;;12.78;100.00
13690;BME280;6917;52.194;9.894;2022-08-02T00:51:00;100759.00;;;12.73;100.00
13690;BME280;6917;52.194;9.894;2022-08-02T00:53:26;100753.03;;;12.71;100.00
13690;BME280;6917;52.194;9.894;2022-08-02T00:55:51;100750.94;;;12.68;100.00
13690;BME280;6917;52.194;9.894;2022-08-02T00:58:17;100757.72;;;12.70;100.00
13690;BME280;6917;52.194;9.894;2022-08-02T01:00:42;100751.78;;;12.77;100.00
13690;BME280;6917;52.194;9.894;2022-08-02T01:03:07;100758.72;;;12.74;100.00
13690;BME280;6917;52.194;9.894;2022-08-02T01:05:33;100755.44;;;12.72;100.00
13690;BME280;6917;52.194;9.894;2022-08-02T01:07:58;100755.78;;;12.71;100.00
13690;BME280;6917;52.194;9.894;2022-08-02T01:10:23;100754.00;;;12.66;100.00
13690;BME280;6917;52.194;9.894;2022-08-02T01:12:49;100748.19;;;12.68;100.00
13690;BME280;6917;52.194;9.894;2022-08-02T01:15:15;100745.28;;;12.64;100.00
13690;BME280;6917;52.194;9.894;2022-08-02T01:18:07;100763.34;;;12.65;100.00
13690;BME280;6917;52.194;9.894;2022-08-02T01:26:49;100742.38;;;12.69;100.00
13690;BME280;6917;52.194;9.894;2022-08-02T01:29:21;100741.59;;;12.69;100.00
13690;BME280;6917;52.194;9.894;2022-08-02T01:37:23;100745.38;;;12.90;100.00
13690;BME280;6917;52.194;9.894;2022-08-02T01:39:57;100745.97;;;12.78;100.00
13690;BME280;6917;52.194;9.894;2022-08-02T01:42:26;100744.00;;;12.70;100.00
13690;BME280;6917;52.194;9.894;2022-08-02T01:44:53;100745.78;;;12.66;100.00
13690;BME280;6917;52.194;9.894;2022-08-02T01:47:23;100741.56;;;12.60;100.00
13690;BME280;6917;52.194;9.894;2022-08-02T01:49:52;100739.09;;;12.50;100.00
13690;BME280;6917;52.194;9.894;2022-08-02T01:52:20;100734.06;;;12.43;100.00
13690;BME280;6917;52.194;9.894;2022-08-02T01:54:53;100744.06;;;12.39;100.00
13690;BME280;6917;52.194;9.894;2022-08-02T01:57:21;100743.84;;;12.27;100.00
13690;BME280;6917;52.194;9.894;2022-08-02T01:59:49;100745.09;;;12.21;100.00
13690;BME280;6917;52.194;9.894;2022-08-02T02:02:17;100746.34;;;12.15;100.00
13690;BME280;6917;52.194;9.894;2022-08-02T02:04:45;100744.88;;;12.09;100.00
13690;BME280;6917;52.194;9.894;2022-08-02T02:07:12;100744.22;;;12.03;100.00
13690;BME280;6917;52.194;9.894;2022-08-02T02:09:40;100741.16;;;12.05;100.00
13690;BME280;6917;52.194;9.894;2022-08-02T02:12:07;100739.88;;;12.11;100.00
13690;BME280;6917;52.194;9.894;2022-08-02T02:14:34;100739.94;;;12.19;100.00
13690;BME280;6917;52.194;9.894;2022-08-02T02:17:01;100746.09;;;12.25;100.00
13690;BME280;6917;52.194;9.894;2022-08-02T02:19:27;100739.69;;;12.30;100.00
13690;BME280;6917;52.194;9.894;2022-08-02T02:21:54;100733.91;;;12.40;100.00
13690;BME280;6917;52.194;9.894;2022-08-02T02:24:20;100731.97;;;12.40;100.00
13690;BME280;6917;52.194;9.894;2022-08-02T02:26:45;100737.81;;;12.47;100.00
13690;BME280;6917;52.194;9.894;2022-08-02T02:29:12;100732.50;;;12.51;100.00
13690;BME280;6917;52.194;9.894;2022-08-02T02:31:39;100729.09;;;12.45;100.00
13690;BME280;6917;52.194;9.894;2022-08-02T02:34:10;100738.16;;;12.55;100.00
13690;BME280;6917;52.194;9.894;2022-08-02T02:36:40;100736.53;;;12.45;100.00
13690;BME280;6917;52.194;9.894;2022-08-02T02:39:11;100731.97;;;12.40;100.00
13690;BME280;6917;52.194;9.894;2022-08-02T02:41:37;100727.50;;;12.44;100.00
13690;BME280;6917;52.194;9.894;2022-08-02T02:44:05;100730.53;;;12.43;100.00
13690;BME280;6917;52.194;9.894;2022-08-02T02:46:33;100720.84;;;12.37;100.00
13690;BME280;6917;52.194;9.894;2022-08-02T02:49:00;100728.31;;;12.45;100.00
13690;BME280;6917;52.194;9.894;2022-08-02T02:51:25;100722.81;;;12.45;100.00
13690;BME280;6917;52.194;9.894;2022-08-02T02:53:52;100722.00;;;12.44;100.00
13690;BME280;6917;52.194;9.894;2022-08-02T02:56:18;100723.16;;;12.52;100.00
13690;BME280;6917;52.194;9.894;2022-08-02T02:58:44;100723.63;;;12.54;100.00
13690;BME280;6917;52.194;9.894;2022-08-02T03:01:11;100712.84;;;12.58;100.00
13690;BME280;6917;52.194;9.894;2022-08-02T03:03:59;100721.88;;;12.58;100.00
13690;BME280;6917;52.194;9.894;2022-08-02T03:06:25;100723.84;;;12.66;100.00
13690;BME280;6917;52.194;9.894;2022-08-02T03:08:50;100711.28;;;12.74;100.00
13690;BME280;6917;52.194;9.894;2022-08-02T03:11:16;100713.41;;;12.77;100.00
13690;BME280;6917;52.194;9.894;2022-08-02T03:13:42;100713.41;;;12.77;100.00
13690;BME280;6917;52.194;9.894;2022-08-02T03:16:09;100714.31;;;12.64;100.00
13690;BME280;6917;52.194;9.894;2022-08-02T03:18:38;100709.16;;;12.62;100.00
13690;BME280;6917;52.194;9.894;2022-08-02T03:21:12;100706.59;;;12.66;100.00
13690;BME280;6917;52.194;9.894;2022-08-02T03:23:40;100706.75;;;12.61;100.00
13690;BME280;6917;52.194;9.894;2022-08-02T03:26:07;100711.69;;;12.50;100.00
13690;BME280;6917;52.194;9.894;2022-08-02T03:28:33;100713.47;;;12.46;100.00
13690;BME280;6917;52.194;9.894;2022-08-02T03:30:59;100708.16;;;12.49;100.00
13690;BME280;6917;52.194;9.894;2022-08-02T03:33:25;100718.81;;;12.51;100.00
13690;BME280;6917;52.194;9.894;2022-08-02T03:35:53;100715.09;;;12.47;100.00
13690;BME280;6917;52.194;9.894;2022-08-02T03:38:21;100707.47;;;12.35;100.00
13690;BME280;6917;52.194;9.894;2022-08-02T03:40:47;100718.91;;;12.37;100.00
13690;BME280;6917;52.194;9.894;2022-08-02T03:43:14;100715.69;;;12.35;100.00
13690;BME280;6917;52.194;9.894;2022-08-02T03:45:46;100720.19;;;12.40;100.00
13690;BME280;6917;52.194;9.894;2022-08-02T03:48:13;100714.88;;;12.43;100.00
13690;BME280;6917;52.194;9.894;2022-08-02T03:50:40;100714.72;;;12.40;100.00
13690;BME280;6917;52.194;9.894;2022-08-02T03:53:06;100708.59;;;12.34;100.00
13690;BME280;6917;52.194;9.894;2022-08-02T03:55:33;100706.53;;;12.48;100.00
13690;BME280;6917;52.194;9.894;2022-08-02T03:57:59;100697.69;;;12.51;100.00
13690;BME280;6917;52.194;9.894;2022-08-02T04:00:24;100709.28;;;12.57;100.00
13690;BME280;6917;52.194;9.894;2022-08-02T04:02:50;100708.03;;;12.63;100.00
13690;BME280;6917;52.194;9.894;2022-08-02T04:05:16;100720.94;;;12.71;100.00
13690;BME280;6917;52.194;9.894;2022-08-02T04:07:41;100711.91;;;12.71;100.00
13690;BME280;6917;52.194;9.894;2022-08-02T04:10:10;100715.59;;;12.58;100.00
13690;BME280;6917;52.194;9.894;2022-08-02T04:12:37;100721.06;;;12.58;100.00
13690;BME280;6917;52.194;9.894;2022-08-02T04:15:04;100725.91;;;12.52;100.00
13690;BME280;6917;52.194;9.894;2022-08-02T04:17:37;100735.41;;;12.46;100.00
13690;BME280;6917;52.194;9.894;2022-08-02T04:20:11;100738.78;;;12.51;100.00
13690;BME280;6917;52.194;9.894;2022-08-02T04:22:49;100739.63;;;12.61;100.00
13690;BME280;6917;52.194;9.894;2022-08-02T04:25:17;100741.75;;;12.64;100.00
13690;BME280;6917;52.194;9.894;2022-08-02T04:27:45;100743.19;;;12.70;100.00
13690;BME280;6917;52.194;9.894;2022-08-02T04:30:11;100745.94;;;12.61;100.00
13690;BME280;6917;52.194;9.894;2022-08-02T04:32:37;100742.72;;;12.68;100.00
13690;BME280;6917;52.194;9.894;2022-08-02T04:35:02;100739.53;;;12.74;100.00
13690;BME280;6917;52.194;9.894;2022-08-02T04:37:28;100741.13;;;12.84;100.00
13690;BME280;6917;52.194;9.894;2022-08-02T04:39:53;100736.50;;;12.93;100.00
13690;BME280;6917;52.194;9.894;2022-08-02T04:42:23;100734.06;;;13.00;100.00
13690;BME280;6917;52.194;9.894;2022-08-02T04:44:50;100729.75;;;13.08;100.00
13690;BME280;6917;52.194;9.894;2022-08-02T04:47:15;100728.28;;;13.10;100.00
13690;BME280;6917;52.194;9.894;2022-08-02T04:49:41;100727.28;;;12.89;100.00
13690;BME280;6917;52.194;9.894;2022-08-02T04:52:06;100726.00;;;12.95;100.00
13690;BME280;6917;52.194;9.894;2022-08-02T04:54:32;100727.63;;;13.14;100.00
13690;BME280;6917;52.194;9.894;2022-08-02T04:56:57;100731.22;;;13.23;100.00
13690;BME280;6917;52.194;9.894;2022-08-02T04:59:22;100730.25;;;13.27;100.00
13690;BME280;6917;52.194;9.894;2022-08-02T05:01:48;100731.25;;;13.31;100.00
13690;BME280;6917;52.194;9.894;2022-08-02T05:04:13;100726.69;;;13.44;100.00
13690;BME280;6917;52.194;9.894;2022-08-02T05:06:38;100735.28;;;13.51;100.00
13690;BME280;6917;52.194;9.894;2022-08-02T05:09:04;100724.78;;;13.53;100.00
13690;BME280;6917;52.194;9.894;2022-08-02T05:11:29;100735.09;;;13.56;100.00
13690;BME280;6917;52.194;9.894;2022-08-02T05:13:54;100743.97;;;13.53;100.00
13690;BME280;6917;52.194;9.894;2022-08-02T05:16:20;100733.47;;;13.55;100.00
13690;BME280;6917;52.194;9.894;2022-08-02T05:18:45;100733.97;;;13.57;100.00
13690;BME280;6917;52.194;9.894;2022-08-02T05:21:11;100740.09;;;13.54;100.00
13690;BME280;6917;52.194;9.894;2022-08-02T05:23:36;100736.88;;;13.52;100.00
13690;BME280;6917;52.194;9.894;2022-08-02T05:26:01;100739.78;;;13.56;100.00
13690;BME280;6917;52.194;9.894;2022-08-02T05:28:26;100741.38;;;13.57;100.00
13690;BME280;6917;52.194;9.894;2022-08-02T05:30:52;100731.41;;;13.61;100.00
13690;BME280;6917;52.194;9.894;2022-08-02T05:33:17;100732.19;;;13.70;100.00
13690;BME280;6917;52.194;9.894;2022-08-02T05:35:43;100737.81;;;13.74;100.00
13690;BME280;6917;52.194;9.894;2022-08-02T05:38:08;100746.53;;;13.84;100.00
13690;BME280;6917;52.194;9.894;2022-08-02T05:40:34;100740.38;;;13.96;100.00
13690;BME280;6917;52.194;9.894;2022-08-02T05:42:59;100736.97;;;14.08;100.00
13690;BME280;6917;52.194;9.894;2022-08-02T05:45:25;100745.16;;;14.16;100.00
13690;BME280;6917;52.194;9.894;2022-08-02T05:47:50;100745.34;;;14.20;100.00
13690;BME280;6917;52.194;9.894;2022-08-02T05:50:16;100744.34;;;14.24;100.00
13690;BME280;6917;52.194;9.894;2022-08-02T05:53:09;100750.78;;;14.28;100.00
13690;BME280;6917;52.194;9.894;2022-08-02T05:55:44;100752.84;;;14.40;100.00
13690;BME280;6917;52.194;9.894;2022-08-02T06:00:39;100757.81;;;14.55;100.00
13690;BME280;6917;52.194;9.894;2022-08-02T06:03:24;100764.44;;;14.63;100.00
13690;BME280;6917;52.194;9.894;2022-08-02T06:05:58;100762.97;;;14.66;100.00
13690;BME280;6917;52.194;9.894;2022-08-02T06:08:30;100765.03;;;14.69;98.96
13690;BME280;6917;52.194;9.894;2022-08-02T06:11:00;100757.03;;;14.84;98.36
13690;BME280;6917;52.194;9.894;2022-08-02T06:13:26;100762.41;;;14.81;97.23
13690;BME280;6917;52.194;9.894;2022-08-02T06:15:52;100761.50;;;14.98;96.79
13690;BME280;6917;52.194;9.894;2022-08-02T06:18:18;100760.63;;;15.06;96.19
13690;BME280;6917;52.194;9.894;2022-08-02T06:20:48;100760.84;;;15.22;95.25
13690;BME280;6917;52.194;9.894;2022-08-02T06:23:15;100759.84;;;15.26;93.78
13690;BME280;6917;52.194;9.894;2022-08-02T06:25:45;100761.13;;;15.29;93.86
13690;BME280;6917;52.194;9.894;2022-08-02T06:28:12;100763.94;;;15.41;94.14
13690;BME280;6917;52.194;9.894;2022-08-02T06:30:38;100748.06;;;15.59;93.75
13690;BME280;6917;52.194;9.894;2022-08-02T06:33:04;100750.00;;;15.67;93.01
13690;BME280;6917;52.194;9.894;2022-08-02T06:35:40;100744.19;;;15.81;92.04
13690;BME280;6917;52.194;9.894;2022-08-02T06:38:11;100749.25;;;15.91;92.00
13690;BME280;6917;52.194;9.894;2022-08-02T06:40:43;100747.16;;;16.09;91.80
13690;BME280;6917;52.194;9.894;2022-08-02T06:43:30;100747.94;;;16.09;89.68
13690;BME280;6917;52.194;9.894;2022-08-02T06:45:59;100743.94;;;16.06;88.41
13690;BME280;6917;52.194;9.894;2022-08-02T06:48:24;100752.78;;;16.12;88.68
13690;BME280;6917;52.194;9.894;2022-08-02T06:50:50;100747.75;;;16.26;88.68
13690;BME280;6917;52.194;9.894;2022-08-02T06:53:15;100755.78;;;16.31;89.26
13690;BME280;6917;52.194;9.894;2022-08-02T06:55:40;100756.47;;;16.28;88.47
13690;BME280;6917;52.194;9.894;2022-08-02T06:58:05;100761.31;;;16.31;87.93
13690;BME280;6917;52.194;9.894;2022-08-02T07:00:31;100752.25;;;16.43;88.61
13690;BME280;6917;52.194;9.894;2022-08-02T07:02:56;100759.28;;;16.77;89.15
13690;BME280;6917;52.194;9.894;2022-08-02T07:05:22;100753.19;;;17.08;86.88
13690;BME280;6917;52.194;9.894;2022-08-02T07:07:48;100746.28;;;17.14;85.63
13690;BME280;6917;52.194;9.894;2022-08-02T07:10:14;100754.06;;;17.37;86.83
13690;BME280;6917;52.194;9.894;2022-08-02T07:12:39;100761.88;;;17.63;85.48
13690;BME280;6917;52.194;9.894;2022-08-02T07:15:06;100751.88;;;17.70;85.04
13690;BME280;6917;52.194;9.894;2022-08-02T07:17:32;100754.75;;;17.62;82.06
13690;BME280;6917;52.194;9.894;2022-08-02T07:19:59;100752.44;;;17.64;82.81
13690;BME280;6917;52.194;9.894;2022-08-02T07:22:25;100754.66;;;17.70;83.59
13690;BME280;6917;52.194;9.894;2022-08-02T07:24:51;100740.56;;;17.75;83.31
13690;BME280;6917;52.194;9.894;2022-08-02T07:27:17;100728.16;;;17.97;83.52
13690;BME280;6917;52.194;9.894;2022-08-02T07:29:43;100713.25;;;18.02;82.23
13690;BME280;6917;52.194;9.894;2022-08-02T07:32:08;100720.41;;;18.19;82.82
13690;BME280;6917;52.194;9.894;2022-08-02T07:34:33;100718.25;;;18.59;81.87
13690;BME280;6917;52.194;9.894;2022-08-02T07:36:59;100716.13;;;18.53;82.27
13690;BME280;6917;52.194;9.894;2022-08-02T07:39:24;100716.31;;;18.44;81.77
13690;BME280;6917;52.194;9.894;2022-08-02T07:41:50;100698.91;;;18.43;81.56
13690;BME280;6917;52.194;9.894;2022-08-02T07:44:17;100692.91;;;18.57;82.91
13690;BME280;6917;52.194;9.894;2022-08-02T07:46:42;100698.38;;;18.69;82.24
13690;BME280;6917;52.194;9.894;2022-08-02T07:49:09;100707.19;;;18.75;81.43
13690;BME280;6917;52.194;9.894;2022-08-02T07:51:34;100704.19;;;18.99;81.26
13690;BME280;6917;52.194;9.894;2022-08-02T07:54:00;100705.00;;;19.00;80.38
13690;BME280;6917;52.194;9.894;2022-08-02T07:56:26;100711.47;;;19.08;80.22
13690;BME280;6917;52.194;9.894;2022-08-02T07:58:51;100705.44;;;19.02;80.05
13690;BME280;6917;52.194;9.894;2022-08-02T08:01:16;100711.41;;;19.04;79.92
13690;BME280;6917;52.194;9.894;2022-08-02T08:03:42;100710.13;;;19.17;80.86
13690;BME280;6917;52.194;9.894;2022-08-02T08:06:07;100709.56;;;19.27;80.28
13690;BME280;6917;52.194;9.894;2022-08-02T08:08:33;100700.50;;;19.30;80.74
13690;BME280;6917;52.194;9.894;2022-08-02T08:10:59;100701.91;;;19.40;80.90
13690;BME280;6917;52.194;9.894;2022-08-02T08:13:24;100704.25;;;19.57;80.03
13690;BME280;6917;52.194;9.894;2022-08-02T08:15:49;100706.72;;;19.63;78.95
13690;BME280;6917;52.194;9.894;2022-08-02T08:18:15;100723.72;;;19.61;79.33
13690;BME280;6917;52.194;9.894;2022-08-02T08:20:40;100706.88;;;19.70;78.90
13690;BME280;6917;52.194;9.894;2022-08-02T08:23:05;100717.44;;;19.83;79.06
13690;BME280;6917;52.194;9.894;2022-08-02T08:25:31;100709.19;;;19.87;78.29
13690;BME280;6917;52.194;9.894;2022-08-02T08:27:56;100710.66;;;20.04;78.37
13690;BME280;6917;52.194;9.894;2022-08-02T08:30:21;100702.59;;;20.18;77.63
13690;BME280;6917;52.194;9.894;2022-08-02T08:32:47;100695.75;;;20.35;76.91
13690;BME280;6917;52.194;9.894;2022-08-02T08:35:13;100699.56;;;20.49;73.71
13690;BME280;6917;52.194;9.894;2022-08-02T08:37:39;100698.53;;;20.58;72.45
13690;BME280;6917;52.194;9.894;2022-08-02T08:40:06;100692.81;;;20.47;68.57
13690;BME280;6917;52.194;9.894;2022-08-02T08:42:33;100688.22;;;20.35;70.08
13690;BME280;6917;52.194;9.894;2022-08-02T08:44:58;100689.19;;;20.43;69.11
13690;BME280;6917;52.194;9.894;2022-08-02T08:47:35;100687.56;;;20.42;68.19
13690;BME280;6917;52.194;9.894;2022-08-02T08:50:07;100676.53;;;20.45;69.36
13690;BME280;6917;52.194;9.894;2022-08-02T08:52:41;100679.50;;;20.37;69.26
13690;BME280;6917;52.194;9.894;2022-08-02T08:55:08;100673.72;;;20.23;70.69
13690;BME280;6917;52.194;9.894;2022-08-02T08:57:39;100673.78;;;20.49;71.65
13690;BME280;6917;52.194;9.894;2022-08-02T09:00:07;100676.00;;;20.63;70.09
13690;BME280;6917;52.194;9.894;2022-08-02T09:02:36;100671.66;;;20.92;70.26
13690;BME280;6917;52.194;9.894;2022-08-02T09:05:01;100679.28;;;20.98;69.13
13690;BME280;6917;52.194;9.894;2022-08-02T09:07:27;100679.75;;;21.04;69.08
13690;BME280;6917;52.194;9.894;2022-08-02T09:09:53;100676.44;;;20.95;69.31
13690;BME280;6917;52.194;9.894;2022-08-02T09:12:19;100670.16;;;20.98;69.11
13690;BME280;6917;52.194;9.894;2022-08-02T09:14:46;100670.56;;;21.00;69.80
13690;BME280;6917;52.194;9.894;2022-08-02T09:17:12;100663.41;;;20.99;70.48
13690;BME280;6917;52.194;9.894;2022-08-02T09:19:38;100666.25;;;21.02;70.23
13690;BME280;6917;52.194;9.894;2022-08-02T09:22:09;100667.59;;;21.16;70.43
13690;BME280;6917;52.194;9.894;2022-08-02T09:27:17;100676.22;;;21.37;69.37
13690;BME280;6917;52.194;9.894;2022-08-02T09:29:53;100668.81;;;21.48;68.14
13690;BME280;6917;52.194;9.894;2022-08-02T09:32:19;100680.38;;;21.54;66.94
13690;BME280;6917;52.194;9.894;2022-08-02T09:34:49;100674.19;;;21.67;66.82
13690;BME280;6917;52.194;9.894;2022-08-02T09:37:26;100672.03;;;21.87;65.44
13690;BME280;6917;52.194;9.894;2022-08-02T09:39:53;100665.28;;;21.88;64.87
13690;BME280;6917;52.194;9.894;2022-08-02T09:42:19;100668.88;;;21.92;64.45
13690;BME280;6917;52.194;9.894;2022-08-02T09:45:00;100662.59;;;21.99;63.78
13690;BME280;6917;52.194;9.894;2022-08-02T09:47:27;100667.16;;;22.18;64.58
13690;BME280;6917;52.194;9.894;2022-08-02T09:49:55;100663.31;;;22.33;64.37
13690;BME280;6917;52.194;9.894;2022-08-02T09:52:28;100673.25;;;22.34;60.81
13690;BME280;6917;52.194;9.894;2022-08-02T09:54:54;100665.31;;;22.40;60.50
13690;BME280;6917;52.194;9.894;2022-08-02T09:57:27;100675.03;;;22.60;58.91
13690;BME280;6917;52.194;9.894;2022-08-02T09:59:56;100658.97;;;22.39;56.62
13690;BME280;6917;52.194;9.894;2022-08-02T10:02:23;100668.59;;;22.52;57.97
13690;BME280;6917;52.194;9.894;2022-08-02T10:04:49;100670.97;;;22.50;56.65
13690;BME280;6917;52.194;9.894;2022-08-02T10:07:15;100670.25;;;22.57;56.40
13690;BME280;6917;52.194;9.894;2022-08-02T10:09:41;100675.84;;;22.61;55.86
13690;BME280;6917;52.194;9.894;2022-08-02T10:12:07;100659.94;;;22.65;57.04
13690;BME280;6917;52.194;9.894;2022-08-02T10:14:33;100659.72;;;22.88;56.64
13690;BME280;6917;52.194;9.894;2022-08-02T10:17:02;100654.16;;;22.95;54.65
13690;BME280;6917;52.194;9.894;2022-08-02T10:19:29;100650.66;;;23.05;55.06
13690;BME280;6917;52.194;9.894;2022-08-02T10:22:03;100660.19;;;23.00;55.43
13690;BME280;6917;52.194;9.894;2022-08-02T10:24:30;100654.56;;;22.93;54.83
13690;BME280;6917;52.194;9.894;2022-08-02T10:26:57;100652.25;;;23.02;55.48
13690;BME280;6917;52.194;9.894;2022-08-02T10:29:29;100653.50;;;23.15;54.93
13690;BME280;6917;52.194;9.894;2022-08-02T10:35:05;100646.75;;;23.24;53.76
13690;BME280;6917;52.194;9.894;2022-08-02T10:37:34;100631.19;;;23.19;55.28
13690;BME280;6917;52.194;9.894;2022-08-02T10:40:01;100638.41;;;23.38;53.48
13690;BME280;6917;52.194;9.894;2022-08-02T10:42:47;100648.38;;;23.35;53.35
13690;BME280;6917;52.194;9.894;2022-08-02T10:45:15;100647.59;;;23.35;54.29
13690;BME280;6917;52.194;9.894;2022-08-02T10:48:06;100641.22;;;23.38;54.39
13690;BME280;6917;52.194;9.894;2022-08-02T10:53:28;100644.44;;;23.54;51.96
13690;BME280;6917;52.194;9.894;2022-08-02T10:55:56;100637.66;;;23.52;49.49
13690;BME280;6917;52.194;9.894;2022-08-02T10:58:24;100634.94;;;23.62;49.48
13690;BME280;6917;52.194;9.894;2022-08-02T11:00:52;100631.75;;;23.60;49.42
13690;BME280;6917;52.194;9.894;2022-08-02T11:08:31;100629.38;;;23.98;48.47
13690;BME280;6917;52.194;9.894;2022-08-02T11:11:14;100634.97;;;24.09;48.43
13690;BME280;6917;52.194;9.894;2022-08-02T11:14:01;100635.38;;;24.18;48.59
13690;BME280;6917;52.194;9.894;2022-08-02T11:19:20;100634.63;;;24.31;48.15
13690;BME280;6917;52.194;9.894;2022-08-02T11:22:20;100635.78;;;24.38;48.79
13690;BME280;6917;52.194;9.894;2022-08-02T11:24:46;100638.16;;;24.57;48.18
13690;BME280;6917;52.194;9.894;2022-08-02T11:27:20;100638.16;;;24.53;48.72
13690;BME280;6917;52.194;9.894;2022-08-02T11:29:46;100629.78;;;24.53;48.60
13690;BME280;6917;52.194;9.894;2022-08-02T11:32:19;100630.59;;;24.43;50.20
13690;BME280;6917;52.194;9.894;2022-08-02T11:34:52;100625.75;;;24.69;51.22
13690;BME280;6917;52.194;9.894;2022-08-02T11:37:38;100620.16;;;24.72;49.34
13690;BME280;6917;52.194;9.894;2022-08-02T11:40:09;100634.13;;;24.72;49.36
13690;BME280;6917;52.194;9.894;2022-08-02T11:42:36;100633.38;;;24.61;49.99
13690;BME280;6917;52.194;9.894;2022-08-02T11:45:04;100626.97;;;24.64;50.40
13690;BME280;6917;52.194;9.894;2022-08-02T11:47:31;100622.16;;;24.79;50.79
13690;BME280;6917;52.194;9.894;2022-08-02T11:50:07;100625.66;;;24.97;50.77
13690;BME280;6917;52.194;9.894;2022-08-02T11:52:34;100628.88;;;25.06;49.33
13690;BME280;6917;52.194;9.894;2022-08-02T11:55:00;100625.59;;;25.22;50.28
13690;BME280;6917;52.194;9.894;2022-08-02T11:57:25;100609.28;;;25.06;50.24
13690;BME280;6917;52.194;9.894;2022-08-02T11:59:52;100602.47;;;25.11;50.28
13690;BME280;6917;52.194;9.894;2022-08-02T12:02:24;100609.31;;;25.03;50.16
13690;BME280;6917;52.194;9.894;2022-08-02T12:04:53;100605.28;;;25.11;48.99
13690;BME280;6917;52.194;9.894;2022-08-02T12:07:25;100607.19;;;25.32;48.95
13690;BME280;6917;52.194;9.894;2022-08-02T12:09:51;100597.16;;;25.34;48.89
13690;BME280;6917;52.194;9.894;2022-08-02T12:12:16;100603.53;;;25.38;48.55
13690;BME280;6917;52.194;9.894;2022-08-02T12:14:42;100603.09;;;25.43;48.69
13690;BME280;6917;52.194;9.894;2022-08-02T12:17:08;100600.69;;;25.49;48.78
13690;BME280;6917;52.194;9.894;2022-08-02T12:19:52;100597.38;;;25.65;48.74
13690;BME280;6917;52.194;9.894;2022-08-02T12:22:26;100593.63;;;25.86;47.45
13690;BME280;6917;52.194;9.894;2022-08-02T12:24:56;100598.84;;;25.84;47.33
13690;BME280;6917;52.194;9.894;2022-08-02T12:27:36;100599.28;;;25.82;46.68
13690;BME280;6917;52.194;9.894;2022-08-02T12:30:07;100594.22;;;25.56;47.75
13690;BME280;6917;52.194;9.894;2022-08-02T12:32:34;100597.81;;;25.56;47.68
13690;BME280;6917;52.194;9.894;2022-08-02T12:37:26;100591.69;;;25.79;48.95
13690;BME280;6917;52.194;9.894;2022-08-02T12:39:51;100588.56;;;25.70;48.72
13690;BME280;6917;52.194;9.894;2022-08-02T12:42:18;100595.78;;;25.64;47.64
13690;BME280;6917;52.194;9.894;2022-08-02T12:44:54;100599.78;;;25.59;48.56
13690;BME280;6917;52.194;9.894;2022-08-02T12:47:20;100596.63;;;25.54;49.78
13690;BME280;6917;52.194;9.894;2022-08-02T12:49:50;100587.88;;;25.51;48.07
13690;BME280;6917;52.194;9.894;2022-08-02T12:52:31;100579.78;;;25.64;48.87
13690;BME280;6917;52.194;9.894;2022-08-02T12:54:57;100582.97;;;25.66;48.10
13690;BME280;6917;52.194;9.894;2022-08-02T12:57:22;100584.16;;;25.69;48.81
13690;BME280;6917;52.194;9.894;2022-08-02T12:59:52;100580.38;;;25.93;49.20
13690;BME280;6917;52.194;9.894;2022-08-02T13:02:18;100569.91;;;26.01;48.66
13690;BME280;6917;52.194;9.894;2022-08-02T13:04:44;100576.25;;;26.08;48.74
13690;BME280;6917;52.194;9.894;2022-08-02T13:07:10;100570.56;;;26.16;48.84
13690;BME280;6917;52.194;9.894;2022-08-02T13:09:37;100562.16;;;26.19;49.72
13690;BME280;6917;52.194;9.894;2022-08-02T13:12:04;100556.03;;;26.28;48.12
13690;BME280;6917;52.194;9.894;2022-08-02T13:14:30;100553.19;;;26.31;47.50
13690;BME280;6917;52.194;9.894;2022-08-02T13:16:56;100552.53;;;26.17;48.13
13690;BME280;6917;52.194;9.894;2022-08-02T13:19:21;100556.56;;;26.19;48.87
13690;BME280;6917;52.194;9.894;2022-08-02T13:21:47;100556.50;;;26.23;48.31
13690;BME280;6917;52.194;9.894;2022-08-02T13:24:13;100556.94;;;26.18;48.00
13690;BME280;6917;52.194;9.894;2022-08-02T13:26:42;100551.31;;;26.21;48.47
13690;BME280;6917;52.194;9.894;2022-08-02T13:29:08;100542.94;;;26.18;47.58
13690;BME280;6917;52.194;9.894;2022-08-02T13:31:34;100545.34;;;26.16;47.22
13690;BME280;6917;52.194;9.894;2022-08-02T13:34:03;100542.84;;;26.28;49.62